Back to Top

Language: 

My Weather Underground Personal Weather Station Historical Data with Graphs...

Delerius Weather Station Historical Data
Daily Summary for November 14, 2017 Units:  English    Metric   Both
« Previous Day
Next Day »
Daily Weekly Monthly Yearly Custom
  High: Low: Average:
Temperature: 55.0 °F 45.7 °F 50.9 °F
Dew Point: 50.8 °F 42.3 °F 47.7 °F
Humidity: 93 % 85 % 89 %
Wind Speed: 20.0 mph 0.0 mph 7.4 mph
Wind Gust: 33.0 mph - -
Wind:- - West
Pressure: 30.16 in 30.05 in -
Precipitation: 0.00 in    
Historical Graphs
 
 
Tabular Data for November 14, 2017
Time Temperature Dew Point Pressure Wind Wind Speed Wind Gust Humidity Rainfall Rate (Hourly) solar Conditions
00:03 45.7 °F 42.3 °F 30.13 in SW 4.0 mph 14.0 mph 88 % 0.00 in 0 W/m2
00:08 45.9 °F 42.5 °F 30.13 in SW 7.0 mph 11.0 mph 88 % 0.00 in 0 W/m2
00:13 46.0 °F 42.7 °F 30.12 in SW 3.0 mph 10.0 mph 88 % 0.00 in 0 W/m2
00:18 46.2 °F 42.9 °F 30.12 in WSW 6.0 mph 11.0 mph 88 % 0.00 in 0 W/m2
00:23 46.4 °F 42.7 °F 30.12 in West 3.0 mph 7.0 mph 87 % 0.00 in 0 W/m2
00:28 46.6 °F 42.9 °F 30.12 in SW 5.0 mph 9.0 mph 87 % 0.00 in 0 W/m2
00:33 46.8 °F 43.1 °F 30.11 in WSW 5.0 mph 13.0 mph 87 % 0.00 in 0 W/m2
00:39 46.8 °F 43.1 °F 30.12 in West 5.0 mph 11.0 mph 87 % 0.00 in 0 W/m2
00:44 46.9 °F 43.3 °F 30.11 in WSW 7.0 mph 14.0 mph 87 % 0.00 in 0 W/m2
00:49 46.9 °F 43.3 °F 30.11 in WSW 6.0 mph 10.0 mph 87 % 0.00 in 0 W/m2
00:54 47.1 °F 43.4 °F 30.11 in WSW 9.0 mph 19.0 mph 87 % 0.00 in 0 W/m2
00:59 47.5 °F 43.8 °F 30.10 in WSW 9.0 mph 16.0 mph 87 % 0.00 in 0 W/m2
01:04 47.7 °F 44.0 °F 30.10 in West 14.0 mph 22.0 mph 87 % 0.00 in 0 W/m2
01:09 48.0 °F 44.0 °F 30.10 in WSW 15.0 mph 24.0 mph 86 % 0.00 in 0 W/m2
01:14 48.2 °F 44.2 °F 30.10 in West 14.0 mph 22.0 mph 86 % 0.00 in 0 W/m2
01:19 48.2 °F 44.2 °F 30.09 in West 10.0 mph 19.0 mph 86 % 0.00 in 0 W/m2
01:24 48.4 °F 44.4 °F 30.09 in WSW 12.0 mph 20.0 mph 86 % 0.00 in 0 W/m2
01:29 48.4 °F 44.1 °F 30.09 in WSW 15.0 mph 24.0 mph 85 % 0.00 in 0 W/m2
01:34 48.6 °F 44.3 °F 30.10 in West 11.0 mph 18.0 mph 85 % 0.00 in 0 W/m2
01:39 48.6 °F 44.3 °F 30.10 in West 11.0 mph 18.0 mph 85 % 0.00 in 0 W/m2
01:44 48.6 °F 44.3 °F 30.09 in West 9.0 mph 14.0 mph 85 % 0.00 in 0 W/m2
01:49 48.6 °F 44.3 °F 30.10 in West 10.0 mph 18.0 mph 85 % 0.00 in 0 W/m2
01:54 48.6 °F 44.6 °F 30.09 in WSW 9.0 mph 13.0 mph 86 % 0.00 in 0 W/m2
01:59 48.6 °F 44.6 °F 30.09 in West 7.0 mph 11.0 mph 86 % 0.00 in 0 W/m2
02:04 48.6 °F 44.6 °F 30.09 in WSW 5.0 mph 7.0 mph 86 % 0.00 in 0 W/m2
02:09 48.6 °F 44.6 °F 30.09 in WSW 5.0 mph 9.0 mph 86 % 0.00 in 0 W/m2
02:14 48.7 °F 44.7 °F 30.09 in WSW 3.0 mph 5.0 mph 86 % 0.00 in 0 W/m2
02:19 48.7 °F 44.7 °F 30.08 in WSW 9.0 mph 14.0 mph 86 % 0.00 in 0 W/m2
02:24 48.7 °F 44.7 °F 30.08 in SW 9.0 mph 13.0 mph 86 % 0.00 in 0 W/m2
02:29 48.7 °F 44.7 °F 30.08 in SW 7.0 mph 10.0 mph 86 % 0.00 in 0 W/m2
02:34 48.7 °F 44.7 °F 30.08 in WSW 10.0 mph 15.0 mph 86 % 0.00 in 0 W/m2
02:39 48.9 °F 44.9 °F 30.08 in WSW 8.0 mph 11.0 mph 86 % 0.00 in 0 W/m2
02:44 48.9 °F 44.9 °F 30.08 in West 9.0 mph 14.0 mph 86 % 0.00 in 0 W/m2
02:49 48.9 °F 44.9 °F 30.08 in West 7.0 mph 13.0 mph 86 % 0.00 in 0 W/m2
02:52 48.9 °F 44.9 °F 30.08 in West 6.0 mph 10.0 mph 86 % 0.00 in 0 W/m2
02:57 48.9 °F 44.9 °F 30.07 in West 11.0 mph 16.0 mph 86 % 0.00 in 0 W/m2
02:59 48.9 °F 45.2 °F 30.07 in West 11.0 mph 19.0 mph 87 % 0.00 in 0 W/m2
03:04 48.9 °F 45.2 °F 30.07 in West 9.0 mph 15.0 mph 87 % 0.00 in 0 W/m2
03:09 48.7 °F 45.0 °F 30.07 in West 11.0 mph 15.0 mph 87 % 0.00 in 0 W/m2
03:14 48.7 °F 45.0 °F 30.06 in West 10.0 mph 16.0 mph 87 % 0.00 in 0 W/m2
03:19 48.6 °F 44.9 °F 30.06 in West 8.0 mph 13.0 mph 87 % 0.00 in 0 W/m2
03:21 48.4 °F 44.7 °F 30.07 in West 10.0 mph 19.0 mph 87 % 0.00 in 0 W/m2
03:26 48.4 °F 44.7 °F 30.06 in West 10.0 mph 19.0 mph 87 % 0.00 in 0 W/m2
03:28 48.2 °F 44.5 °F 30.06 in West 14.0 mph 25.0 mph 87 % 0.00 in 0 W/m2
03:33 48.0 °F 44.3 °F 30.06 in West 13.0 mph 21.0 mph 87 % 0.00 in 0 W/m2
03:38 48.0 °F 44.6 °F 30.06 in West 15.0 mph 25.0 mph 88 % 0.00 in 0 W/m2
03:43 48.0 °F 44.6 °F 30.06 in WNW 18.0 mph 27.0 mph 88 % 0.00 in 0 W/m2
03:48 48.2 °F 44.8 °F 30.06 in West 16.0 mph 24.0 mph 88 % 0.00 in 0 W/m2
03:53 48.2 °F 44.8 °F 30.06 in West 20.0 mph 29.0 mph 88 % 0.00 in 0 W/m2
03:58 48.2 °F 44.8 °F 30.06 in West 19.0 mph 28.0 mph 88 % 0.00 in 0 W/m2
04:03 48.2 °F 44.8 °F 30.06 in West 16.0 mph 23.0 mph 88 % 0.00 in 0 W/m2
04:08 48.2 °F 45.1 °F 30.06 in West 18.0 mph 26.0 mph 89 % 0.00 in 0 W/m2
04:13 48.2 °F 45.1 °F 30.06 in West 15.0 mph 23.0 mph 89 % 0.00 in 0 W/m2
04:14 48.2 °F 45.1 °F 30.06 in West 16.0 mph 23.0 mph 89 % 0.00 in 0 W/m2
04:19 48.2 °F 45.1 °F 30.06 in West 16.0 mph 22.0 mph 89 % 0.00 in 0 W/m2
04:24 48.4 °F 45.3 °F 30.06 in West 17.0 mph 25.0 mph 89 % 0.00 in 0 W/m2
04:29 48.4 °F 45.3 °F 30.06 in West 14.0 mph 22.0 mph 89 % 0.00 in 0 W/m2
04:34 48.4 °F 45.3 °F 30.06 in WNW 16.0 mph 24.0 mph 89 % 0.00 in 0 W/m2
04:39 48.6 °F 45.5 °F 30.07 in WNW 15.0 mph 23.0 mph 89 % 0.00 in 0 W/m2
04:44 48.6 °F 45.5 °F 30.07 in WNW 17.0 mph 23.0 mph 89 % 0.00 in 0 W/m2
04:49 48.6 °F 45.5 °F 30.07 in WNW 16.0 mph 24.0 mph 89 % 0.00 in 0 W/m2
04:54 48.7 °F 45.6 °F 30.07 in WNW 16.0 mph 22.0 mph 89 % 0.00 in 0 W/m2
04:59 48.7 °F 45.6 °F 30.07 in West 15.0 mph 20.0 mph 89 % 0.00 in 0 W/m2
05:04 48.6 °F 45.5 °F 30.07 in West 14.0 mph 20.0 mph 89 % 0.00 in 0 W/m2
05:09 48.6 °F 45.5 °F 30.07 in West 14.0 mph 22.0 mph 89 % 0.00 in 0 W/m2
05:14 48.4 °F 45.3 °F 30.06 in West 14.0 mph 23.0 mph 89 % 0.00 in 0 W/m2
05:19 48.4 °F 45.3 °F 30.06 in West 12.0 mph 19.0 mph 89 % 0.00 in 0 W/m2
05:24 48.4 °F 45.6 °F 30.06 in West 13.0 mph 19.0 mph 90 % 0.00 in 0 W/m2
05:29 48.6 °F 45.8 °F 30.06 in West 15.0 mph 24.0 mph 90 % 0.00 in 0 W/m2
05:34 48.6 °F 45.8 °F 30.05 in West 16.0 mph 26.0 mph 90 % 0.00 in 0 W/m2
05:39 48.7 °F 45.9 °F 30.05 in West 16.0 mph 25.0 mph 90 % 0.00 in 0 W/m2
05:44 48.7 °F 45.9 °F 30.06 in West 12.0 mph 18.0 mph 90 % 0.00 in 0 W/m2
05:49 48.7 °F 45.9 °F 30.06 in WNW 13.0 mph 20.0 mph 90 % 0.00 in 0 W/m2
05:54 48.9 °F 46.1 °F 30.06 in WNW 16.0 mph 24.0 mph 90 % 0.00 in 0 W/m2
05:59 49.1 °F 46.3 °F 30.06 in WNW 18.0 mph 31.0 mph 90 % 0.00 in 0 W/m2
06:04 49.3 °F 46.8 °F 30.06 in WNW 17.0 mph 25.0 mph 91 % 0.00 in 0 W/m2
06:09 49.3 °F 46.8 °F 30.05 in West 16.0 mph 24.0 mph 91 % 0.00 in 0 W/m2
06:14 49.3 °F 46.8 °F 30.06 in West 16.0 mph 26.0 mph 91 % 0.00 in 0 W/m2
06:19 49.3 °F 46.8 °F 30.06 in West 20.0 mph 33.0 mph 91 % 0.00 in 0 W/m2
06:24 49.3 °F 46.8 °F 30.06 in West 20.0 mph 30.0 mph 91 % 0.00 in 0 W/m2
06:29 49.5 °F 46.9 °F 30.06 in West 19.0 mph 29.0 mph 91 % 0.00 in 0 W/m2
06:34 49.5 °F 46.9 °F 30.06 in West 19.0 mph 26.0 mph 91 % 0.00 in 0 W/m2
06:39 49.3 °F 46.8 °F 30.05 in West 15.0 mph 23.0 mph 91 % 0.00 in 0 W/m2
06:44 49.3 °F 46.8 °F 30.06 in West 20.0 mph 29.0 mph 91 % 0.00 in 0 W/m2
06:49 49.3 °F 46.8 °F 30.05 in West 15.0 mph 27.0 mph 91 % 0.00 in 0 W/m2
06:54 49.5 °F 46.9 °F 30.06 in West 16.0 mph 26.0 mph 91 % 0.00 in 0 W/m2
06:59 49.5 °F 46.9 °F 30.07 in WNW 15.0 mph 23.0 mph 91 % 0.00 in 0 W/m2
07:04 49.5 °F 46.9 °F 30.07 in WNW 9.0 mph 15.0 mph 91 % 0.00 in 0 W/m2
07:09 49.5 °F 46.9 °F 30.08 in WNW 9.0 mph 16.0 mph 91 % 0.00 in 0 W/m2
07:14 49.5 °F 46.9 °F 30.08 in WNW 8.0 mph 14.0 mph 91 % 0.00 in 0 W/m2
07:19 49.3 °F 46.8 °F 30.09 in WNW 6.0 mph 13.0 mph 91 % 0.00 in 0 W/m2
07:24 49.3 °F 46.8 °F 30.09 in WNW 7.0 mph 12.0 mph 91 % 0.00 in 0 W/m2
07:30 49.3 °F 46.8 °F 30.09 in WNW 6.0 mph 12.0 mph 91 % 0.00 in 5 W/m2
07:35 49.3 °F 46.8 °F 30.09 in WNW 6.0 mph 12.0 mph 91 % 0.00 in 9 W/m2
07:40 49.3 °F 46.8 °F 30.09 in WNW 8.0 mph 14.0 mph 91 % 0.00 in 11 W/m2
07:45 49.3 °F 47.1 °F 30.10 in WNW 4.0 mph 10.0 mph 92 % 0.00 in 18 W/m2
07:50 49.5 °F 47.2 °F 30.10 in WNW 7.0 mph 12.0 mph 92 % 0.00 in 16 W/m2
07:55 49.6 °F 47.4 °F 30.10 in WNW 7.0 mph 12.0 mph 92 % 0.00 in 16 W/m2
08:00 49.6 °F 47.4 °F 30.10 in West 5.0 mph 9.0 mph 92 % 0.00 in 23 W/m2
08:05 49.8 °F 47.6 °F 30.10 in WNW 7.0 mph 15.0 mph 92 % 0.00 in 16 W/m2
08:10 50.2 °F 47.9 °F 30.10 in West 9.0 mph 16.0 mph 92 % 0.00 in 11 W/m2
08:15 50.2 °F 47.9 °F 30.10 in West 11.0 mph 21.0 mph 92 % 0.00 in 16 W/m2
08:20 50.2 °F 47.9 °F 30.10 in West 10.0 mph 20.0 mph 92 % 0.00 in 18 W/m2
08:25 50.4 °F 48.1 °F 30.10 in West 11.0 mph 18.0 mph 92 % 0.00 in 16 W/m2
08:30 50.4 °F 48.4 °F 30.10 in West 11.0 mph 16.0 mph 93 % 0.00 in 26 W/m2
08:31 50.4 °F 48.4 °F 30.10 in West 13.0 mph 18.0 mph 93 % 0.00 in 30 W/m2
08:36 50.4 °F 48.4 °F 30.10 in WNW 11.0 mph 18.0 mph 93 % 0.00 in 44 W/m2
08:41 50.4 °F 48.4 °F 30.10 in WNW 11.0 mph 20.0 mph 93 % 0.00 in 49 W/m2
08:46 50.4 °F 48.4 °F 30.10 in West 12.0 mph 19.0 mph 93 % 0.00 in 58 W/m2
08:51 50.4 °F 48.4 °F 30.11 in West 9.0 mph 16.0 mph 93 % 0.00 in 54 W/m2
08:56 50.5 °F 48.6 °F 30.11 in West 9.0 mph 19.0 mph 93 % 0.00 in 62 W/m2
09:01 50.7 °F 48.8 °F 30.11 in West 13.0 mph 22.0 mph 93 % 0.00 in 63 W/m2
09:06 50.7 °F 48.8 °F 30.11 in West 9.0 mph 14.0 mph 93 % 0.00 in 97 W/m2
09:11 50.9 °F 48.9 °F 30.11 in WNW 10.0 mph 14.0 mph 93 % 0.00 in 144 W/m2
09:17 51.3 °F 49.3 °F 30.12 in WNW 9.0 mph 13.0 mph 93 % 0.00 in 183 W/m2
09:22 51.4 °F 49.5 °F 30.11 in WNW 10.0 mph 16.0 mph 93 % 0.00 in 156 W/m2
09:44 52.7 °F 50.1 °F 30.12 in West 8.0 mph 13.0 mph 91 % 0.00 in 250 W/m2
09:52 53.2 °F 50.4 °F 30.12 in West 8.0 mph 16.0 mph 90 % 0.00 in 179 W/m2
09:57 53.4 °F 50.3 °F 30.12 in West 9.0 mph 16.0 mph 89 % 0.00 in 127 W/m2
10:02 53.8 °F 50.3 °F 30.12 in WNW 11.0 mph 18.0 mph 88 % 0.00 in 258 W/m2
10:07 54.0 °F 50.2 °F 30.12 in West 15.0 mph 21.0 mph 87 % 0.00 in 241 W/m2
10:12 54.1 °F 50.4 °F 30.12 in West 15.0 mph 24.0 mph 87 % 0.00 in 227 W/m2
10:17 54.3 °F 50.2 °F 30.12 in West 13.0 mph 19.0 mph 86 % 0.00 in 241 W/m2
10:23 54.3 °F 50.2 °F 30.12 in West 14.0 mph 21.0 mph 86 % 0.00 in 223 W/m2
10:28 54.5 °F 50.4 °F 30.12 in West 12.0 mph 22.0 mph 86 % 0.00 in 283 W/m2
10:33 54.7 °F 50.6 °F 30.12 in WNW 10.0 mph 21.0 mph 86 % 0.00 in 287 W/m2
10:34 54.9 °F 50.8 °F 30.12 in West 12.0 mph 21.0 mph 86 % 0.00 in 327 W/m2
10:39 55.0 °F 50.6 °F 30.12 in WNW 16.0 mph 26.0 mph 85 % 0.00 in 258 W/m2
10:44 55.0 °F 50.6 °F 30.12 in West 13.0 mph 19.0 mph 85 % 0.00 in 225 W/m2
10:49 55.0 °F 50.6 °F 30.12 in West 16.0 mph 23.0 mph 85 % 0.00 in 213 W/m2
10:54 54.9 °F 50.4 °F 30.13 in West 15.0 mph 22.0 mph 85 % 0.00 in 155 W/m2
10:59 54.7 °F 50.3 °F 30.13 in West 12.0 mph 20.0 mph 85 % 0.00 in 130 W/m2
11:04 54.1 °F 49.7 °F 30.13 in West 11.0 mph 19.0 mph 85 % 0.00 in 79 W/m2
11:09 53.8 °F 49.7 °F 30.13 in West 13.0 mph 20.0 mph 86 % 0.00 in 70 W/m2
11:14 53.4 °F 49.6 °F 30.12 in West 9.0 mph 14.0 mph 87 % 0.00 in 81 W/m2
11:19 53.4 °F 49.6 °F 30.12 in WNW 12.0 mph 18.0 mph 87 % 0.00 in 90 W/m2
11:24 53.2 °F 49.8 °F 30.12 in West 10.0 mph 14.0 mph 88 % 0.00 in 93 W/m2
11:29 53.2 °F 49.8 °F 30.12 in West 11.0 mph 16.0 mph 88 % 0.00 in 90 W/m2
11:34 53.2 °F 49.8 °F 30.12 in West 10.0 mph 15.0 mph 88 % 0.00 in 86 W/m2
11:39 53.2 °F 49.8 °F 30.12 in West 10.0 mph 18.0 mph 88 % 0.00 in 70 W/m2
11:44 53.2 °F 49.5 °F 30.12 in West 7.0 mph 12.0 mph 87 % 0.00 in 81 W/m2
11:49 53.2 °F 49.5 °F 30.12 in West 11.0 mph 18.0 mph 87 % 0.00 in 107 W/m2
11:54 53.2 °F 49.5 °F 30.12 in West 11.0 mph 16.0 mph 87 % 0.00 in 104 W/m2
11:59 53.4 °F 49.6 °F 30.12 in West 10.0 mph 18.0 mph 87 % 0.00 in 100 W/m2
12:04 53.4 °F 49.6 °F 30.12 in West 9.0 mph 18.0 mph 87 % 0.00 in 105 W/m2
12:09 53.6 °F 49.8 °F 30.12 in West 12.0 mph 19.0 mph 87 % 0.00 in 84 W/m2
12:14 53.6 °F 49.8 °F 30.12 in West 10.0 mph 16.0 mph 87 % 0.00 in 72 W/m2
12:19 53.8 °F 50.0 °F 30.12 in West 13.0 mph 19.0 mph 87 % 0.00 in 79 W/m2
12:24 53.8 °F 50.0 °F 30.12 in West 10.0 mph 15.0 mph 87 % 0.00 in 100 W/m2
12:29 53.8 °F 50.0 °F 30.12 in West 12.0 mph 18.0 mph 87 % 0.00 in 114 W/m2
12:34 53.8 °F 50.0 °F 30.12 in West 11.0 mph 16.0 mph 87 % 0.00 in 111 W/m2
12:39 53.8 °F 50.0 °F 30.12 in West 12.0 mph 20.0 mph 87 % 0.00 in 107 W/m2
12:44 53.8 °F 50.0 °F 30.12 in WNW 12.0 mph 19.0 mph 87 % 0.00 in 113 W/m2
12:49 53.8 °F 50.0 °F 30.12 in West 12.0 mph 23.0 mph 87 % 0.00 in 114 W/m2
12:54 53.8 °F 50.0 °F 30.12 in West 12.0 mph 19.0 mph 87 % 0.00 in 128 W/m2
12:59 53.8 °F 50.0 °F 30.12 in West 13.0 mph 19.0 mph 87 % 0.00 in 130 W/m2
13:04 53.8 °F 50.3 °F 30.12 in WNW 11.0 mph 20.0 mph 88 % 0.00 in 130 W/m2
13:09 53.8 °F 50.3 °F 30.12 in WNW 13.0 mph 21.0 mph 88 % 0.00 in 125 W/m2
13:14 53.8 °F 50.3 °F 30.12 in WNW 11.0 mph 16.0 mph 88 % 0.00 in 118 W/m2
13:19 53.8 °F 50.3 °F 30.12 in WNW 11.0 mph 19.0 mph 88 % 0.00 in 118 W/m2
13:24 53.8 °F 50.3 °F 30.12 in WNW 13.0 mph 19.0 mph 88 % 0.00 in 123 W/m2
13:29 53.8 °F 50.3 °F 30.12 in WNW 13.0 mph 24.0 mph 88 % 0.00 in 105 W/m2
13:34 53.8 °F 50.3 °F 30.11 in WNW 12.0 mph 18.0 mph 88 % 0.00 in 104 W/m2
13:39 53.8 °F 50.3 °F 30.11 in WNW 14.0 mph 21.0 mph 88 % 0.00 in 123 W/m2
13:44 54.0 °F 50.5 °F 30.11 in WNW 14.0 mph 23.0 mph 88 % 0.00 in 134 W/m2
13:50 54.1 °F 50.4 °F 30.11 in West 11.0 mph 16.0 mph 87 % 0.00 in 134 W/m2
13:55 54.1 °F 50.4 °F 30.11 in West 11.0 mph 15.0 mph 87 % 0.00 in 128 W/m2
14:00 54.1 °F 50.4 °F 30.11 in WNW 11.0 mph 16.0 mph 87 % 0.00 in 116 W/m2
14:05 54.1 °F 50.4 °F 30.11 in WNW 11.0 mph 16.0 mph 87 % 0.00 in 102 W/m2
14:10 54.1 °F 50.4 °F 30.11 in WNW 10.0 mph 14.0 mph 87 % 0.00 in 91 W/m2
14:15 54.1 °F 50.4 °F 30.11 in WNW 11.0 mph 16.0 mph 87 % 0.00 in 88 W/m2
14:20 54.1 °F 50.4 °F 30.12 in WNW 7.0 mph 11.0 mph 87 % 0.00 in 90 W/m2
14:25 54.0 °F 50.2 °F 30.12 in WNW 8.0 mph 12.0 mph 87 % 0.00 in 77 W/m2
14:30 54.0 °F 50.2 °F 30.12 in WNW 9.0 mph 14.0 mph 87 % 0.00 in 72 W/m2
14:35 53.8 °F 50.0 °F 30.12 in WNW 7.0 mph 12.0 mph 87 % 0.00 in 79 W/m2
14:40 53.8 °F 50.0 °F 30.12 in WNW 7.0 mph 15.0 mph 87 % 0.00 in 97 W/m2
14:45 53.8 °F 50.0 °F 30.12 in West 7.0 mph 12.0 mph 87 % 0.00 in 111 W/m2
14:50 53.8 °F 50.0 °F 30.12 in West 2.0 mph 5.0 mph 87 % 0.00 in 95 W/m2
14:55 54.0 °F 50.2 °F 30.12 in WSW 6.0 mph 9.0 mph 87 % 0.00 in 79 W/m2
15:00 54.0 °F 50.2 °F 30.12 in West 1.0 mph 3.0 mph 87 % 0.00 in 65 W/m2
15:05 53.8 °F 50.0 °F 30.12 in WSW 2.0 mph 7.0 mph 87 % 0.00 in 60 W/m2
15:10 53.8 °F 50.0 °F 30.12 in Calm     87 % 0.00 in 49 W/m2
15:15 53.8 °F 50.0 °F 30.12 in Calm     87 % 0.00 in 42 W/m2
15:20 53.8 °F 50.0 °F 30.12 in Calm     87 % 0.00 in 37 W/m2
15:25 53.8 °F 50.0 °F 30.12 in Calm     87 % 0.00 in 28 W/m2
15:30 53.6 °F 49.8 °F 30.12 in Calm     87 % 0.00 in 23 W/m2
15:35 53.4 °F 49.6 °F 30.12 in Calm   1.0 mph 87 % 0.00 in 18 W/m2
15:40 53.4 °F 49.6 °F 30.12 in East 1.0 mph 2.0 mph 87 % 0.00 in 12 W/m2
15:45 53.2 °F 49.5 °F 30.12 in East 1.0 mph 2.0 mph 87 % 0.00 in 11 W/m2
15:50 53.2 °F 49.5 °F 30.13 in Calm     87 % 0.00 in 9 W/m2
15:55 53.1 °F 49.3 °F 30.12 in Calm     87 % 0.00 in 5 W/m2
16:00 53.1 °F 49.3 °F 30.13 in Calm   2.0 mph 87 % 0.00 in 5 W/m2
16:05 52.9 °F 49.4 °F 30.13 in WSW 1.0 mph 5.0 mph 88 % 0.00 in 0 W/m2
16:10 52.9 °F 49.1 °F 30.13 in Calm   5.0 mph 87 % 0.00 in 0 W/m2
16:15 52.9 °F 49.1 °F 30.12 in WSW 3.0 mph 6.0 mph 87 % 0.00 in 0 W/m2
16:20 52.9 °F 49.1 °F 30.12 in West 4.0 mph 7.0 mph 87 % 0.00 in 0 W/m2
16:25 52.9 °F 49.1 °F 30.12 in West 1.0 mph 2.0 mph 87 % 0.00 in 0 W/m2
16:30 52.9 °F 49.1 °F 30.12 in West 1.0 mph 2.0 mph 87 % 0.00 in 0 W/m2
16:35 52.9 °F 49.1 °F 30.12 in SW 2.0 mph 5.0 mph 87 % 0.00 in 0 W/m2
16:40 52.9 °F 49.1 °F 30.13 in SW 1.0 mph 4.0 mph 87 % 0.00 in 0 W/m2
16:45 52.9 °F 49.1 °F 30.13 in Calm   1.0 mph 87 % 0.00 in 0 W/m2
16:50 52.9 °F 49.1 °F 30.13 in Calm     87 % 0.00 in 0 W/m2
16:55 52.9 °F 49.1 °F 30.13 in Calm     87 % 0.00 in 0 W/m2
17:00 52.5 °F 48.8 °F 30.13 in Calm     87 % 0.00 in 0 W/m2
17:03 52.5 °F 48.8 °F 30.13 in Calm     87 % 0.00 in 0 W/m2
17:08 52.3 °F 48.6 °F 30.13 in Calm     87 % 0.00 in 0 W/m2
17:13 52.3 °F 48.6 °F 30.13 in Calm   1.0 mph 87 % 0.00 in 0 W/m2
17:18 52.2 °F 48.4 °F 30.13 in Calm   1.0 mph 87 % 0.00 in 0 W/m2
17:23 52.2 °F 48.7 °F 30.13 in Calm   1.0 mph 88 % 0.00 in 0 W/m2
17:28 52.0 °F 48.5 °F 30.13 in Calm     88 % 0.00 in 0 W/m2
17:33 52.0 °F 48.5 °F 30.13 in Calm     88 % 0.00 in 0 W/m2
17:38 52.0 °F 48.5 °F 30.14 in Calm     88 % 0.00 in 0 W/m2
17:43 51.8 °F 48.4 °F 30.13 in Calm     88 % 0.00 in 0 W/m2
17:48 51.6 °F 48.2 °F 30.14 in Calm   2.0 mph 88 % 0.00 in 0 W/m2
17:53 51.6 °F 48.2 °F 30.13 in Calm   1.0 mph 88 % 0.00 in 0 W/m2
17:58 51.6 °F 48.2 °F 30.13 in South 1.0 mph 5.0 mph 88 % 0.00 in 0 W/m2
18:08 51.6 °F 48.2 °F 30.13 in Calm     88 % 0.00 in 0 W/m2
18:13 51.6 °F 48.2 °F 30.13 in Calm   1.0 mph 88 % 0.00 in 0 W/m2
18:18 51.6 °F 48.2 °F 30.13 in SE 1.0 mph 4.0 mph 88 % 0.00 in 0 W/m2
18:23 51.6 °F 48.2 °F 30.13 in SE 1.0 mph 2.0 mph 88 % 0.00 in 0 W/m2
18:28 51.4 °F 48.0 °F 30.13 in Calm     88 % 0.00 in 0 W/m2
18:33 51.4 °F 48.0 °F 30.14 in Calm   1.0 mph 88 % 0.00 in 0 W/m2
18:38 51.3 °F 48.1 °F 30.14 in Calm     89 % 0.00 in 0 W/m2
18:43 51.3 °F 48.1 °F 30.14 in Calm   1.0 mph 89 % 0.00 in 0 W/m2
18:49 51.4 °F 48.3 °F 30.14 in Calm     89 % 0.00 in 0 W/m2
18:54 51.4 °F 48.3 °F 30.14 in Calm   3.0 mph 89 % 0.00 in 0 W/m2
18:59 51.4 °F 48.3 °F 30.14 in Calm   2.0 mph 89 % 0.00 in 0 W/m2
19:04 51.4 °F 48.3 °F 30.14 in SE 1.0 mph 2.0 mph 89 % 0.00 in 0 W/m2
19:09 51.3 °F 48.1 °F 30.14 in Calm     89 % 0.00 in 0 W/m2
19:14 51.1 °F 48.0 °F 30.14 in Calm     89 % 0.00 in 0 W/m2
19:19 50.9 °F 47.8 °F 30.14 in Calm     89 % 0.00 in 0 W/m2
19:24 50.7 °F 47.6 °F 30.14 in Calm     89 % 0.00 in 0 W/m2
19:29 50.7 °F 47.9 °F 30.14 in SW 1.0 mph 4.0 mph 90 % 0.00 in 0 W/m2
19:34 50.7 °F 47.9 °F 30.14 in West 2.0 mph 5.0 mph 90 % 0.00 in 0 W/m2
19:39 50.5 °F 47.7 °F 30.14 in West 1.0 mph 3.0 mph 90 % 0.00 in 0 W/m2
19:44 50.4 °F 47.5 °F 30.14 in West 2.0 mph 5.0 mph 90 % 0.00 in 0 W/m2
19:49 50.2 °F 47.4 °F 30.14 in West 1.0 mph 2.0 mph 90 % 0.00 in 0 W/m2
19:54 50.0 °F 47.2 °F 30.14 in Calm     90 % 0.00 in 0 W/m2
19:59 49.6 °F 46.8 °F 30.14 in Calm     90 % 0.00 in 0 W/m2
20:04 49.6 °F 46.8 °F 30.14 in Calm   1.0 mph 90 % 0.00 in 0 W/m2
20:09 49.5 °F 46.9 °F 30.14 in West 1.0 mph 4.0 mph 91 % 0.00 in 0 W/m2
20:14 49.5 °F 46.9 °F 30.14 in West 1.0 mph 3.0 mph 91 % 0.00 in 0 W/m2
20:19 49.5 °F 47.2 °F 30.14 in Calm   2.0 mph 92 % 0.00 in 0 W/m2
20:24 49.5 °F 47.2 °F 30.14 in Calm   1.0 mph 92 % 0.00 in 0 W/m2
20:29 49.3 °F 47.1 °F 30.14 in Calm   1.0 mph 92 % 0.00 in 0 W/m2
20:34 49.3 °F 47.1 °F 30.14 in Calm   2.0 mph 92 % 0.00 in 0 W/m2
20:39 49.3 °F 47.1 °F 30.14 in Calm     92 % 0.00 in 0 W/m2
20:44 49.3 °F 47.1 °F 30.14 in Calm   1.0 mph 92 % 0.00 in 0 W/m2
20:49 49.3 °F 47.1 °F 30.14 in Calm   1.0 mph 92 % 0.00 in 0 W/m2
20:54 49.5 °F 47.5 °F 30.14 in SE 1.0 mph 2.0 mph 93 % 0.00 in 0 W/m2
20:59 49.6 °F 47.7 °F 30.14 in ESE 2.0 mph 4.0 mph 93 % 0.00 in 0 W/m2
21:04 49.8 °F 47.9 °F 30.14 in ESE 2.0 mph 5.0 mph 93 % 0.00 in 0 W/m2
21:09 50.0 °F 48.1 °F 30.14 in East 3.0 mph 5.0 mph 93 % 0.00 in 0 W/m2
21:14 50.2 °F 48.2 °F 30.14 in ENE 2.0 mph 6.0 mph 93 % 0.00 in 0 W/m2
21:19 50.4 °F 48.4 °F 30.14 in Calm   1.0 mph 93 % 0.00 in 0 W/m2
21:25 50.4 °F 48.4 °F 30.14 in Calm   1.0 mph 93 % 0.00 in 0 W/m2
21:30 50.5 °F 48.6 °F 30.14 in Calm     93 % 0.00 in 0 W/m2
21:35 50.5 °F 48.6 °F 30.14 in NE 1.0 mph 2.0 mph 93 % 0.00 in 0 W/m2
21:40 50.7 °F 48.8 °F 30.14 in NE 2.0 mph 4.0 mph 93 % 0.00 in 0 W/m2
21:45 50.7 °F 48.8 °F 30.14 in ENE 1.0 mph 4.0 mph 93 % 0.00 in 0 W/m2
21:50 50.9 °F 48.7 °F 30.14 in Calm   1.0 mph 92 % 0.00 in 0 W/m2
21:55 51.1 °F 48.8 °F 30.15 in Calm   2.0 mph 92 % 0.00 in 0 W/m2
22:00 51.1 °F 48.8 °F 30.14 in Calm   1.0 mph 92 % 0.00 in 0 W/m2
22:05 51.1 °F 48.8 °F 30.14 in Calm     92 % 0.00 in 0 W/m2
22:10 50.9 °F 48.7 °F 30.14 in SSW 2.0 mph 6.0 mph 92 % 0.00 in 0 W/m2
22:15 51.1 °F 48.8 °F 30.14 in WSW 3.0 mph 5.0 mph 92 % 0.00 in 0 W/m2
22:20 51.3 °F 49.0 °F 30.14 in SW 4.0 mph 7.0 mph 92 % 0.00 in 0 W/m2
22:25 51.3 °F 49.0 °F 30.14 in SW 2.0 mph 5.0 mph 92 % 0.00 in 0 W/m2
22:30 51.3 °F 48.7 °F 30.14 in Calm   2.0 mph 91 % 0.00 in 0 W/m2
22:35 51.3 °F 48.7 °F 30.15 in SW 3.0 mph 5.0 mph 91 % 0.00 in 0 W/m2
22:40 51.3 °F 48.7 °F 30.15 in WSW 1.0 mph 2.0 mph 91 % 0.00 in 0 W/m2
22:45 51.1 °F 48.5 °F 30.15 in Calm     91 % 0.00 in 0 W/m2
22:50 51.1 °F 48.5 °F 30.15 in Calm     91 % 0.00 in 0 W/m2
22:55 51.1 °F 48.5 °F 30.15 in Calm     91 % 0.00 in 0 W/m2
22:57 51.1 °F 48.5 °F 30.15 in Calm     91 % 0.00 in 0 W/m2
23:02 51.1 °F 48.8 °F 30.15 in WSW 2.0 mph 5.0 mph 92 % 0.00 in 0 W/m2
23:07 51.1 °F 48.8 °F 30.15 in Calm   1.0 mph 92 % 0.00 in 0 W/m2
23:12 51.1 °F 48.8 °F 30.15 in WSW 1.0 mph 5.0 mph 92 % 0.00 in 0 W/m2
23:17 51.1 °F 48.8 °F 30.15 in WSW 1.0 mph 5.0 mph 92 % 0.00 in 0 W/m2
23:22 51.3 °F 49.0 °F 30.15 in Calm   5.0 mph 92 % 0.00 in 0 W/m2
23:27 51.3 °F 49.0 °F 30.15 in WNW 2.0 mph 5.0 mph 92 % 0.00 in 0 W/m2
23:32 51.4 °F 49.2 °F 30.15 in WNW 4.0 mph 6.0 mph 92 % 0.00 in 0 W/m2
23:37 51.4 °F 49.2 °F 30.15 in WSW 6.0 mph 9.0 mph 92 % 0.00 in 0 W/m2
23:43 51.6 °F 49.4 °F 30.16 in West 6.0 mph 8.0 mph 92 % 0.00 in 0 W/m2
23:48 51.8 °F 49.5 °F 30.16 in West 7.0 mph 9.0 mph 92 % 0.00 in 0 W/m2
23:53 52.0 °F 49.4 °F 30.16 in West 3.0 mph 8.0 mph 91 % 0.00 in 0 W/m2
23:58 52.0 °F 49.4 °F 30.16 in West 6.0 mph 10.0 mph 91 % 0.00 in 0 W/m2
Delerius-Weather
Compliments of Weather Underground - 2.25 mb

Data updates at regular intervals.